createdAt,value
2022-08-21T00:00:52.453Z,21.83
2022-08-21T00:05:55.319Z,21.79
2022-08-21T00:10:59.784Z,21.68
2022-08-21T00:16:04.255Z,21.81
2022-08-21T00:21:07.759Z,21.83
2022-08-21T00:26:12.276Z,21.79
2022-08-21T00:31:15.530Z,21.77
2022-08-21T00:36:18.844Z,21.69
2022-08-21T00:41:37.720Z,21.50
2022-08-21T00:46:43.040Z,21.32
2022-08-21T00:51:50.274Z,21.27
2022-08-21T00:56:57.461Z,21.17
2022-08-21T01:02:02.954Z,21.04
2022-08-21T01:07:06.124Z,20.99
2022-08-21T01:12:12.864Z,20.78
2022-08-21T01:17:18.493Z,20.79
2022-08-21T01:22:23.374Z,20.81
2022-08-21T01:27:26.192Z,20.68
2022-08-21T01:32:29.160Z,20.58
2022-08-21T01:37:33.505Z,20.56
2022-08-21T01:42:36.919Z,20.41
2022-08-21T01:47:40.279Z,20.37
2022-08-21T01:52:45.181Z,20.33
2022-08-21T01:57:48.913Z,20.26
2022-08-21T02:02:52.647Z,20.18
2022-08-21T02:07:58.354Z,20.10
2022-08-21T02:13:01.752Z,20.17
2022-08-21T02:18:08.007Z,20.03
2022-08-21T02:23:12.909Z,19.97
2022-08-21T02:28:16.632Z,19.96
2022-08-21T02:33:20.315Z,19.92
2022-08-21T02:38:27.493Z,20.04
2022-08-21T02:43:30.698Z,19.91
2022-08-21T02:48:35.181Z,19.89
2022-08-21T02:53:40.980Z,19.85
2022-08-21T02:58:46.805Z,19.88
2022-08-21T03:03:51.210Z,19.81
2022-08-21T03:08:55.608Z,19.75
2022-08-21T03:13:59.488Z,19.71
2022-08-21T03:19:03.437Z,19.60
2022-08-21T03:24:08.217Z,19.55
2022-08-21T03:29:11.832Z,19.48
2022-08-21T03:34:15.307Z,19.48
2022-08-21T03:39:19.936Z,19.45
2022-08-21T03:44:25.203Z,19.46
2022-08-21T03:49:28.649Z,19.42
2022-08-21T03:54:36.564Z,19.46
2022-08-21T03:59:40.472Z,19.50
2022-08-21T04:04:43.247Z,19.52
2022-08-21T04:09:47.733Z,19.65
2022-08-21T04:14:52.528Z,19.57
2022-08-21T04:19:56.291Z,19.53
2022-08-21T04:25:00.690Z,19.52
2022-08-21T04:30:04.395Z,19.67
2022-08-21T04:35:10.783Z,19.65
2022-08-21T04:40:17.816Z,19.77
2022-08-21T04:45:23.255Z,19.84
2022-08-21T04:50:28.954Z,19.98
2022-08-21T04:55:33.644Z,19.94
2022-08-21T05:00:37.134Z,20.04
2022-08-21T05:05:40.968Z,20.18
2022-08-21T05:10:45.715Z,20.07
2022-08-21T05:15:48.940Z,20.31
2022-08-21T05:20:51.990Z,20.44
2022-08-21T05:25:57.183Z,20.66
2022-08-21T05:31:00.114Z,20.94
2022-08-21T05:36:04.163Z,20.88
2022-08-21T05:41:08.730Z,21.10
2022-08-21T05:46:11.732Z,21.27
2022-08-21T05:51:16.680Z,21.25
2022-08-21T05:56:21.053Z,21.76
2022-08-21T06:01:24.033Z,21.88
2022-08-21T06:06:26.992Z,22.01
2022-08-21T06:11:31.383Z,22.31
2022-08-21T06:16:34.301Z,22.10
2022-08-21T06:21:37.271Z,22.05
2022-08-21T06:26:41.587Z,22.29
2022-08-21T06:31:45.559Z,22.73
2022-08-21T06:36:50.694Z,22.67
2022-08-21T06:41:56.310Z,22.80
2022-08-21T06:46:59.484Z,23.56
2022-08-21T06:52:02.643Z,23.77
2022-08-21T06:57:07.558Z,23.98
2022-08-21T07:02:10.408Z,23.65
2022-08-21T07:07:13.582Z,23.79
2022-08-21T07:12:18.383Z,23.72
2022-08-21T07:17:22.176Z,23.89
2022-08-21T07:22:25.314Z,23.85
2022-08-21T07:27:29.968Z,24.03
2022-08-21T07:32:32.933Z,24.24
2022-08-21T07:37:36.568Z,24.51
2022-08-21T07:42:43.942Z,24.40
2022-08-21T07:47:46.975Z,24.42
2022-08-21T07:52:50.091Z,24.98
2022-08-21T07:57:54.562Z,24.98
2022-08-21T08:02:57.867Z,25.16
2022-08-21T08:08:01.281Z,25.23
2022-08-21T08:13:05.675Z,25.44
2022-08-21T08:18:14.102Z,25.15
2022-08-21T08:23:16.990Z,25.45
2022-08-21T08:28:23.296Z,25.54
2022-08-21T08:33:26.370Z,25.66
2022-08-21T08:38:29.591Z,26.25
2022-08-21T08:43:35.625Z,26.34
2022-08-21T08:48:52.972Z,26.16
2022-08-21T08:54:03.964Z,26.67
2022-08-21T08:59:14.989Z,26.97
2022-08-21T09:04:25.120Z,26.90
2022-08-21T09:09:37.817Z,27.15
2022-08-21T09:14:56.113Z,27.23
2022-08-21T09:20:11.109Z,27.11
2022-08-21T09:25:24.222Z,27.26
2022-08-21T09:30:32.103Z,27.69
2022-08-21T09:35:36.590Z,27.84
2022-08-21T09:40:42.020Z,28.08
2022-08-21T09:45:48.339Z,27.49
2022-08-21T09:50:52.329Z,27.59
2022-08-21T09:56:17.282Z,27.66
2022-08-21T10:01:27.057Z,27.69
2022-08-21T10:06:30.512Z,27.44
2022-08-21T10:11:35.566Z,27.50
2022-08-21T10:16:48.205Z,27.68
2022-08-21T10:22:03.658Z,28.37
2022-08-21T10:27:16.838Z,28.44
2022-08-21T10:32:33.368Z,28.52
2022-08-21T10:37:45.772Z,28.40
2022-08-21T10:43:02.138Z,28.32
2022-08-21T10:48:09.232Z,28.33
2022-08-21T10:53:34.308Z,28.80
2022-08-21T10:58:42.049Z,28.32
2022-08-21T11:03:55.778Z,27.95
2022-08-21T11:09:05.345Z,28.86
2022-08-21T11:14:17.507Z,28.94
2022-08-21T11:19:29.680Z,29.14
2022-08-21T11:24:41.132Z,29.19
2022-08-21T11:29:47.860Z,28.52
2022-08-21T11:35:02.013Z,27.95
2022-08-21T11:40:11.620Z,27.85
2022-08-21T11:45:21.937Z,27.98
2022-08-21T11:50:34.477Z,27.76
2022-08-21T11:55:44.558Z,28.11
2022-08-21T12:00:53.533Z,28.14
2022-08-21T12:06:01.278Z,28.79
2022-08-21T12:11:08.185Z,28.34
2022-08-21T12:16:13.879Z,28.68
2022-08-21T12:21:34.948Z,28.25
2022-08-21T12:26:48.812Z,28.06
2022-08-21T12:31:59.674Z,27.65
2022-08-21T12:37:05.969Z,27.58
2022-08-21T12:42:17.958Z,27.55
2022-08-21T12:47:31.112Z,27.80
2022-08-21T12:52:40.991Z,27.75
2022-08-21T12:57:43.889Z,28.08
2022-08-21T13:02:49.586Z,28.21
2022-08-21T13:07:54.245Z,28.03
2022-08-21T13:12:59.418Z,27.76
2022-08-21T13:18:05.888Z,27.14
2022-08-21T13:23:24.164Z,26.91
2022-08-21T13:28:35.062Z,27.01
2022-08-21T13:33:40.138Z,27.23
2022-08-21T13:38:46.722Z,27.29
2022-08-21T13:43:57.683Z,27.64
2022-08-21T13:49:01.935Z,27.56
2022-08-21T13:54:16.862Z,27.54
2022-08-21T13:59:28.716Z,27.69
2022-08-21T14:04:37.383Z,27.64
2022-08-21T14:09:45.762Z,27.74
2022-08-21T14:14:48.638Z,27.41
2022-08-21T14:19:51.562Z,27.26
2022-08-21T14:25:03.000Z,27.21
2022-08-21T14:30:13.782Z,27.13
2022-08-21T14:35:22.846Z,27.31
2022-08-21T14:40:28.510Z,27.44
2022-08-21T14:45:32.869Z,27.61
2022-08-21T14:50:36.248Z,27.07
2022-08-21T14:55:59.940Z,27.01
2022-08-21T15:01:05.138Z,26.99
2022-08-21T15:06:09.263Z,27.09
2022-08-21T15:11:42.522Z,27.16
2022-08-21T15:16:43.576Z,27.06
2022-08-21T15:21:46.486Z,26.83
2022-08-21T15:26:51.924Z,26.79
2022-08-21T15:31:57.794Z,26.52
2022-08-21T15:37:01.095Z,26.82
2022-08-21T15:42:10.485Z,26.58
2022-08-21T15:47:16.371Z,26.66
2022-08-21T15:52:21.577Z,26.39
2022-08-21T15:57:27.321Z,25.98
2022-08-21T16:02:32.366Z,25.90
2022-08-21T16:07:35.287Z,25.71
2022-08-21T16:12:43.680Z,25.54
2022-08-21T16:17:49.161Z,25.18
2022-08-21T16:22:52.855Z,25.20
2022-08-21T16:28:01.885Z,25.15
2022-08-21T16:33:06.651Z,25.18
2022-08-21T16:38:11.076Z,25.15
2022-08-21T16:43:17.556Z,25.05
2022-08-21T16:53:40.711Z,24.89
2022-08-21T16:58:48.572Z,24.78
2022-08-21T17:03:52.463Z,24.79
2022-08-21T17:08:55.604Z,24.79
2022-08-21T17:14:04.192Z,24.77
2022-08-21T17:19:08.831Z,24.55
2022-08-21T17:24:15.830Z,24.62
2022-08-21T17:29:24.931Z,24.58
2022-08-21T17:34:31.138Z,24.48
2022-08-21T17:39:36.669Z,24.24
2022-08-21T17:44:42.674Z,24.17
2022-08-21T17:49:45.715Z,24.06
2022-08-21T17:54:49.263Z,23.72
2022-08-21T17:59:58.198Z,23.59
2022-08-21T18:05:01.833Z,23.51
2022-08-21T18:10:09.202Z,23.29
2022-08-21T18:15:17.085Z,23.38
2022-08-21T18:20:24.308Z,23.27
2022-08-21T18:25:29.181Z,23.03
2022-08-21T18:30:36.577Z,23.02
2022-08-21T18:35:40.291Z,22.95
2022-08-21T18:40:46.878Z,22.85
2022-08-21T18:45:51.982Z,22.75
2022-08-21T18:50:55.123Z,22.58
2022-08-21T18:56:04.819Z,22.70
2022-08-21T19:01:23.344Z,22.71
2022-08-21T19:06:27.609Z,22.68
2022-08-21T19:11:31.165Z,22.75
2022-08-21T19:16:36.042Z,22.77
2022-08-21T19:21:39.512Z,22.68
2022-08-21T19:26:43.188Z,22.61
2022-08-21T19:31:48.532Z,22.58
2022-08-21T19:36:51.781Z,22.38
2022-08-21T19:41:58.208Z,22.32
2022-08-21T19:47:05.842Z,22.17
2022-08-21T19:52:12.908Z,22.19
2022-08-21T19:57:18.018Z,22.22
2022-08-21T20:02:22.414Z,22.24
2022-08-21T20:12:50.773Z,21.91
2022-08-21T20:17:55.582Z,21.79
2022-08-21T20:23:01.059Z,21.70
2022-08-21T20:28:14.593Z,21.72
2022-08-21T20:33:22.222Z,21.64
2022-08-21T20:38:25.657Z,21.49
2022-08-21T20:43:29.302Z,21.43
2022-08-21T20:48:49.399Z,21.30
2022-08-21T20:54:03.535Z,21.46
2022-08-21T20:59:17.155Z,21.48
2022-08-21T21:04:33.670Z,21.40
2022-08-21T21:09:41.882Z,21.44
2022-08-21T21:14:48.406Z,21.52
2022-08-21T21:19:57.740Z,21.51
2022-08-21T21:25:06.641Z,21.50
2022-08-21T21:30:14.491Z,21.45
2022-08-21T21:35:32.991Z,21.42
2022-08-21T21:40:53.836Z,21.31
2022-08-21T21:46:09.662Z,21.30
2022-08-21T21:51:26.748Z,21.29
2022-08-21T21:56:44.530Z,21.19
2022-08-21T22:01:51.847Z,21.15
2022-08-21T22:07:03.753Z,21.14
2022-08-21T22:12:19.149Z,21.05
2022-08-21T22:17:37.582Z,20.96
2022-08-21T22:22:47.675Z,20.93
2022-08-21T22:27:59.657Z,20.88
2022-08-21T22:33:11.495Z,20.86
2022-08-21T22:38:30.675Z,20.76
2022-08-21T22:43:34.250Z,20.75
2022-08-21T22:48:39.831Z,20.64
2022-08-21T22:53:55.630Z,20.65
2022-08-21T22:59:03.119Z,20.63
2022-08-21T23:04:20.807Z,20.48
2022-08-21T23:09:34.597Z,20.44
2022-08-21T23:14:37.669Z,20.48
2022-08-21T23:19:55.199Z,20.43
2022-08-21T23:25:21.408Z,20.48
2022-08-21T23:30:40.284Z,20.46
2022-08-21T23:36:13.461Z,20.47
2022-08-21T23:41:34.737Z,20.46
2022-08-21T23:46:51.245Z,20.50
2022-08-21T23:52:04.345Z,20.53
2022-08-21T23:57:31.441Z,20.55
